Terminal Aerodrome Forecast
Issued by NWS

Home | Current Version | Previous Version | Graphics & Text | Print | Product List | Glossary On
Versions: 1 2 3 4 5 6 7 8 9 10 11 12 13 14 15 16 17
000
FTUS43 KUNR 031100
TAFGCC
TAF
KGCC 031131Z 0312/0412 35019KT 2SM -SN OVC018
     FM031800 33014KT P6SM OVC025
     FM032100 33011KT P6SM BKN030
     FM040000 27009KT P6SM SCT040=

USA.gov is the U.S. government's official web portal to all federal, state and local government web resources and services.